KMWM/MWM METAR and TAF weather

Enter ICAO airport designator
Station Type Date Time Source
KMWM METAR 2021/07/26 15:15 UTC NOAA

KMWM 261515Z AUTO 22013KT 10SM CLR 24/21 A3005 RMK AO2


Station Type Date Time Source
KMWM Decoded METAR 2021/07/26 15:15 UTC NOAA

Windom, Windom Municipal Airport, MN, United States (KMWM) 43-54-48N 095-06-34W
Jul 26, 2021 - 11:15 AM EDT / 2021.07.26 1515 UTC
Wind: from the SW (220 degrees) at 15 MPH (13 KT):0
Visibility: 10 mile(s):0
Sky conditions: clear
Temperature: 75 F (24 C)
Dew Point: 69 F (21 C)
Relative Humidity: 83%
Pressure (altimeter): 30.05 in. Hg (1017 hPa)
ob: KMWM 261515Z AUTO 22013KT 10SM CLR 24/21 A3005 RMK AO2
cycle: 15

Station Type Date Time Source
KMWM TAF UTC NOAA

Error!

Example: see airport list